Main page
METAR-TAF:

METAR-TAF

Airports :

Menorca Airport

Minorca, Spain

latitude: 39-52N, longitude: 004-14E, elevation: 87 m

Current weather observation

The report was made 11 minutes ago, at 09:00 UTC
Wind 14 kt from the Southwest, varying between South/Southwest and West
Temperature 16°C
Humidity 68%
Pressure 1011 hPa
Visibility 10 km or more
Few clouds at a height of 2000 ft

METAR: LEMH 240900Z 23014KT 200V270 9999 FEW020 16/10 Q1011

Time: 11:11 (09:11 UTC)

Forecast

The report was made 1 hour and 11 minutes ago, at 08:00 UTC
Forecast valid from 24 at 09 UTC to 25 at 09 UTC
Wind 18 kt from the South/Southwest
Visibility 10 km or more
Few clouds at a height of 2000 ft
Becoming
from 24 at 17 UTC to 24 at 19 UTC
Wind 12 kt from the South/Southwest

TAF: LEMH 240800Z 2409/2509 20018KT 9999 FEW020 TX18/2413Z TN11/2506Z BECMG 2417/2419 20012KT

Weather observations and forecasts of more than 4000 airports (METAR and TAF reports).

The available stations are represented by yellow and red dots on the map.

Hover mouse over dot to see the name of the station.

Then click to see weather observations and forecasts.

To change the map : click on the green buttons with a black cross to zoom in, on the green button with a dash to zoom out, or on the green arrows for adjacent maps.


METAR-TAF: